Warsaw, NY

11:45 AM EDT on March 27, 2015 (GMT -0400)
The Center Perry | | Change Station
CLOSE
Current Station
Personal Weather Station
Location: Perry, NY
Elevation: 1358 ft
Nearby Weather Stations

Elev 1358 ft 42.72 °N, 78.00 °W | Updated 8 minutes ago

Snow
Snow
32.9 °F
Feels Like 28 °F
N
4.7
Wind Variable Wind from West

Today
High -- | Low -- °F
--% Chance of Precip.
Yesterday
High -- | Low -- °F
Precip. -- in
7:03 AM 7:32 PM
First Quarter, 53% visible
Pressure 29.89 in
Visibility 9.0 miles
Clouds Few 2200 ft
Scattered Clouds 3000 ft
Overcast 6000 ft
Windchill 28 °F
Dew Point 25 °F
Humidity 73%
Rainfall 0.18 in
Snow Depth Not available.
UV 2 out of 12
Pollen .60 out of 12
Air Quality Not available.
Flu Activity Not available.
METAR KDSV 271454Z AUTO 34010KT 9SM FEW022 SCT030 OVC060 02/M01 A2984 RMK AO2 SNB16E41 SLP120 P0000 60000 T00171011 53008

More Conditions Fewer Conditions

Pressure 29.89 in
Visibility 9.0 miles
Clouds Few 2200 ft
Scattered Clouds 3000 ft
Overcast 6000 ft
Windchill 28 °F
Dew Point 25 °F
Humidity 73%
Rainfall 0.18 in
Snow Depth Not available.
UV 2 out of 12
Pollen .60 out of 12
Air Quality Not available.
Flu Activity Not available.
METAR KDSV 271454Z AUTO 34010KT 9SM FEW022 SCT030 OVC060 02/M01 A2984 RMK AO2 SNB16E41 SLP120 P0000 60000 T00171011 53008

More Conditions Fewer Conditions

10-Day Weather Forecast

Almanac

Astronomy

Mar. 27, 2015 Rise Set
Actual Time
Civil Twilight
Nautical Twilight
Astronomical Twilight
Moon
Length of Visible Light
Length of Day
Tomorrow will be .
, % of the Moon is Illuminated

Today's Extremes

State Highs State Lows

Community

WunderPhotos

Upload Photos

1,808,762 photos uploaded!

WunderBlogs® & News

Nearby

Air Quality

  Air Quality AQ Index Pollutant
Not available.

Snow Depth

Station Depth Elevation

Earthquake Activity

City Distance Mag. Time & Date
Minimum magnitude displayed is 2.5.

Coastal Water Temperatures

Place Temperature

Stations

Nearby Weather Stations

Station Location Temp. Windchill Dew Point Humidity Wind Precip. Elev Updated Type